Etusivu
METAR-TAF:

METAR-TAF

Lentoasemat :

Bordj Badji Mokhtar, Algeria

Leveyspiiri: 21-22-30N, Pituuspiiri: 000-55-26E, korkeus merenpinnasta: 396 m

METAR: puuttuu

Aika: 18:41 (17:41 UTC)

Sääennuste

Tämä raportti tehtiin 3 tuntia ja 41 minuuttia sitten, kello 14.00 UTC
Ennuste voimassa 19. päivästä klo 15 UTC - 19. päivään klo 24 UTC
Tuuli 12 kn lännestä
Näkyvyys 10 km tai enemmän
Muutamia pilviä 4600 ft:n korkeudessa
Hajanaisia pilviä 10000 ft:n korkeudessa
Todennäköisyys 30% :
Ajoittain
19. päivästä klo 15 UTC - 19. päivään klo 18 UTC
Muutamia pilviä 4600 ft:n korkeudessa, Kasvava cumulus-pilvi.

TAF: DATM 191400Z 1915/1924 26012KT 9999 FEW046 SCT100 PROB30 TEMPO 1915/1918 FEW046TCU

Säähavainnot ja -ennusteet yli 4000 lentoasemalta (METAR- ja TAF-raportit).

Käytössä olevat sääasemat on merkitty karttaan keltaisilla ja punaisilla pisteillä.

Aseta hiiri pisteen päälle nähdäksesi sääaseman nimen.

Klikkaa sitten nähdäksesi säähavainnot ja -ennusteet.

Kartan vaihtaminen: klikkaa mustalla rastilla varustettuja vihreitä pisteitä, niin voit zoomata sisään; viivalla varustettua vihreää pistettä, niin voit zoomata ulos tai vihreitä nuolia, niin pääset viereisille kartoille.


METAR-TAF: